Weather at Charleston International Airport

Public forecast

Using degrees Fahrenheit for public forecast. Weather courtesy of forecast.io.

Current aviation weather report (METAR) for Charleston International Airport

Retrieved 2021/06/19 01:56 UTC (49 minutes ago):

KCHS 190156Z 19006KT 10SM BKN250 24/22 A3008 RMK AO2 SLP186 T02440217

Aviation forecast (TAF) for Charleston International Airport

Retrieved 2021-06-19 00:45 UTC (2 hours ago):

TAF KCHS 182338Z 1900/1924 18009KT P6SM FEW080 SCT250 FM190100 21005KT P6SM BKN250 FM191400 25007KT P6SM BKN100 FM191900 23011G17KT P6SM BKN080